Time;durP1;ratioP1;P1;durP2;ratioP2;P2;SDS_P1;SDS_P2;PMS_P1;PMS_P2;Temp;Humidity;BMP_temperature;BMP_pressure;BME280_temperature;BME280_humidity;BME280_pressure;Samples;Min_cycle;Max_cycle;Signal;HPM_P1;HPM_P2
2021/10/25 00:00:21;;;;;;;5.45;3.40;;;7.90;91.40;;;;;;2058082;28;20406;-96
2021/10/25 00:01:21;;;;;;;6.78;3.65;;;7.90;91.40;;;;;;2057853;28;20524;-95
2021/10/25 00:02:22;;;;;;;5.07;3.33;;;7.90;91.40;;;;;;2042111;29;20035;-95
2021/10/25 00:03:23;;;;;;;5.93;3.40;;;7.90;91.40;;;;;;2057997;28;20042;-95
2021/10/25 00:04:24;;;;;;;5.80;3.60;;;7.90;91.40;;;;;;2057223;28;20098;-95
2021/10/25 00:05:25;;;;;;;6.28;3.47;;;7.80;91.40;;;;;;2039608;29;20087;-95
2021/10/25 00:06:26;;;;;;;5.97;3.60;;;7.80;91.40;;;;;;2049841;28;20035;-95
2021/10/25 00:07:27;;;;;;;6.07;3.65;;;7.80;91.40;;;;;;2052660;28;20031;-94
2021/10/25 00:08:28;;;;;;;6.07;3.55;;;7.80;91.40;;;;;;2057996;28;20051;-95
2021/10/25 00:09:29;;;;;;;5.28;3.55;;;7.80;91.40;;;;;;2057660;28;20074;-95
2021/10/25 00:10:30;;;;;;;5.47;3.63;;;7.80;91.40;;;;;;2057725;28;20125;-95
2021/10/25 00:11:31;;;;;;;7.10;3.33;;;7.80;91.40;;;;;;2058117;28;20524;-95
2021/10/25 00:12:33;;;;;;;5.85;3.50;;;7.80;91.40;;;;;;2060422;28;20035;-95
2021/10/25 00:13:34;;;;;;;5.82;3.50;;;7.80;91.50;;;;;;2066063;28;20053;-94
2021/10/25 00:14:34;;;;;;;5.90;3.40;;;7.70;91.40;;;;;;2065279;28;20408;-95
2021/10/25 00:15:36;;;;;;;6.35;3.60;;;7.70;91.40;;;;;;2045383;28;20042;-95
2021/10/25 00:16:38;;;;;;;5.63;3.78;;;7.70;91.80;;;;;;2057362;28;20043;-95
2021/10/25 00:17:39;;;;;;;5.90;3.33;;;7.70;91.50;;;;;;2050417;28;20086;-96
2021/10/25 00:18:40;;;;;;;6.80;3.70;;;7.70;91.50;;;;;;2053719;28;20097;-95
2021/10/25 00:19:41;;;;;;;6.28;3.60;;;7.70;91.50;;;;;;2050131;28;20046;-95
2021/10/25 00:20:42;;;;;;;5.95;3.58;;;7.70;91.60;;;;;;2040637;29;20040;-95
2021/10/25 00:21:43;;;;;;;6.57;3.53;;;7.70;91.60;;;;;;2046441;28;20035;-95
2021/10/25 00:22:44;;;;;;;5.38;3.25;;;7.70;91.60;;;;;;2069690;28;20049;-95
2021/10/25 00:23:44;;;;;;;5.10;3.47;;;7.70;91.60;;;;;;2064706;28;20045;-95
2021/10/25 00:24:45;;;;;;;4.97;3.10;;;7.70;91.60;;;;;;2060604;28;20058;-95
2021/10/25 00:25:46;;;;;;;6.07;4.03;;;7.70;91.60;;;;;;2073097;28;20041;-95
2021/10/25 00:26:47;;;;;;;5.85;3.50;;;7.70;91.60;;;;;;2058178;28;20057;-96
2021/10/25 00:27:48;;;;;;;5.05;3.33;;;7.70;91.60;;;;;;2054876;28;20049;-96
2021/10/25 00:28:49;;;;;;;5.47;3.65;;;7.70;91.60;;;;;;2043943;28;20027;-96
2021/10/25 00:29:49;;;;;;;6.20;3.80;;;7.60;91.60;;;;;;2056954;28;20038;-96
2021/10/25 00:30:50;;;;;;;5.55;3.63;;;7.60;91.60;;;;;;2055415;28;20130;-96
2021/10/25 00:31:51;;;;;;;5.45;3.60;;;7.60;91.60;;;;;;2057950;28;20535;-95
2021/10/25 00:32:51;;;;;;;5.65;3.63;;;7.60;91.60;;;;;;2049953;28;20039;-96
2021/10/25 00:33:52;;;;;;;4.82;2.85;;;7.60;91.60;;;;;;2054141;28;20035;-96
2021/10/25 00:34:53;;;;;;;5.15;3.25;;;7.60;91.60;;;;;;2057687;28;20054;-96
2021/10/25 00:35:54;;;;;;;5.30;3.50;;;7.60;91.60;;;;;;2074413;28;20431;-95
2021/10/25 00:36:55;;;;;;;5.65;3.80;;;7.60;91.60;;;;;;2081612;28;20422;-96
2021/10/25 00:37:56;;;;;;;5.63;3.42;;;7.60;91.60;;;;;;2057825;28;20066;-96
2021/10/25 00:38:57;;;;;;;5.40;3.42;;;7.60;91.60;;;;;;2066028;28;20508;-96
2021/10/25 00:39:57;;;;;;;5.55;3.60;;;7.50;91.60;;;;;;2057474;28;20053;-96
2021/10/25 00:40:58;;;;;;;5.30;3.60;;;7.60;91.70;;;;;;2059103;28;20389;-96
2021/10/25 00:42:01;;;;;;;5.30;3.35;;;7.60;91.60;;;;;;2082273;28;20482;-96
2021/10/25 00:43:01;;;;;;;5.82;3.63;;;7.60;91.60;;;;;;2071591;28;20040;-96
2021/10/25 00:44:02;;;;;;;5.78;3.78;;;7.60;91.70;;;;;;2064323;28;20508;-96
2021/10/25 00:45:04;;;;;;;6.03;4.13;;;7.50;91.60;;;;;;2067783;28;20027;-96
2021/10/25 00:46:06;;;;;;;7.00;3.60;;;7.50;91.60;;;;;;2065835;28;20034;-96
2021/10/25 00:47:08;;;;;;;6.55;3.80;;;7.50;91.60;;;;;;2065460;28;20033;-96
2021/10/25 00:48:09;;;;;;;5.55;3.92;;;7.50;91.70;;;;;;2074182;28;20041;-96
2021/10/25 00:49:09;;;;;;;6.35;3.60;;;7.50;91.70;;;;;;2058024;28;20134;-96
2021/10/25 00:50:10;;;;;;;5.07;3.20;;;7.50;91.70;;;;;;2060963;28;20031;-96
2021/10/25 00:51:12;;;;;;;6.10;3.42;;;7.50;91.70;;;;;;2066683;28;20042;-96
2021/10/25 00:52:14;;;;;;;4.55;3.20;;;7.50;91.70;;;;;;2066252;28;20043;-96
2021/10/25 00:53:15;;;;;;;6.50;3.90;;;7.50;91.70;;;;;;2067371;28;20042;-96
2021/10/25 00:54:17;;;;;;;6.00;3.85;;;7.50;91.70;;;;;;2065717;28;20026;-96
2021/10/25 00:55:18;;;;;;;5.88;3.58;;;7.50;91.70;;;;;;2069654;28;20093;-96
2021/10/25 00:56:19;;;;;;;5.35;3.67;;;7.50;91.70;;;;;;2061604;28;20065;-96
2021/10/25 00:57:20;;;;;;;5.43;3.83;;;7.50;91.70;;;;;;2046317;28;20466;-96
2021/10/25 00:58:21;;;;;;;5.75;3.50;;;7.50;91.70;;;;;;2049817;28;20544;-96
2021/10/25 00:59:21;;;;;;;5.57;3.45;;;7.50;91.70;;;;;;2050024;28;20047;-96
2021/10/25 01:00:24;;;;;;;5.65;3.88;;;7.50;91.70;;;;;;2061889;28;20035;-95
2021/10/25 01:01:24;;;;;;;5.65;3.58;;;7.50;91.70;;;;;;2058177;28;20031;-96
2021/10/25 01:02:25;;;;;;;5.88;3.78;;;7.50;91.70;;;;;;2049522;28;20046;-94
2021/10/25 01:03:26;;;;;;;6.00;3.80;;;7.50;91.70;;;;;;2041703;29;20075;-95
2021/10/25 01:04:27;;;;;;;5.38;3.67;;;7.50;91.70;;;;;;2057172;28;20030;-95
2021/10/25 01:05:30;;;;;;;5.65;3.50;;;7.50;91.70;;;;;;2065653;28;20039;-96
2021/10/25 01:06:30;;;;;;;5.28;3.50;;;7.50;91.70;;;;;;2065344;28;20038;-96
2021/10/25 01:07:31;;;;;;;5.30;3.85;;;7.50;91.70;;;;;;2065772;28;20041;-96
2021/10/25 01:08:35;;;;;;;6.18;3.92;;;7.50;91.70;;;;;;2065920;28;20500;-95
2021/10/25 01:09:37;;;;;;;5.45;3.60;;;7.50;91.70;;;;;;2046207;28;20405;-95
2021/10/25 01:10:38;;;;;;;5.20;3.40;;;7.50;91.80;;;;;;2049919;28;20110;-95
2021/10/25 01:11:41;;;;;;;4.75;3.30;;;7.50;91.80;;;;;;2069406;28;20034;-95
2021/10/25 01:12:42;;;;;;;5.57;3.78;;;7.40;91.80;;;;;;2058072;28;20078;-95
2021/10/25 01:13:44;;;;;;;5.63;3.90;;;7.40;91.70;;;;;;2057541;28;20041;-95
2021/10/25 01:14:44;;;;;;;6.03;3.80;;;7.40;91.80;;;;;;2062320;28;20081;-95
2021/10/25 01:15:45;;;;;;;5.30;3.58;;;7.40;91.80;;;;;;2057483;28;20030;-96
2021/10/25 01:16:46;;;;;;;6.53;3.75;;;7.40;91.80;;;;;;2041583;29;20039;-96
2021/10/25 01:17:53;;;;;;;6.43;3.80;;;7.40;91.80;;;;;;2041790;29;20092;-96
2021/10/25 01:18:55;;;;;;;5.72;3.75;;;7.40;91.90;;;;;;2059450;28;20066;-95
2021/10/25 01:19:56;;;;;;;6.05;3.70;;;7.40;91.90;;;;;;2074748;28;20508;-93
2021/10/25 01:20:57;;;;;;;5.57;3.70;;;7.40;91.90;;;;;;2068881;28;20399;-93
2021/10/25 01:21:58;;;;;;;5.78;3.40;;;7.40;91.90;;;;;;2059344;28;20058;-94
2021/10/25 01:23:00;;;;;;;6.53;3.85;;;7.40;91.90;;;;;;2059045;28;20144;-94
2021/10/25 01:24:01;;;;;;;5.72;4.03;;;7.40;91.90;;;;;;2052081;28;20502;-95
2021/10/25 01:25:02;;;;;;;6.03;4.20;;;7.40;91.90;;;;;;2041191;29;20075;-94
2021/10/25 01:26:04;;;;;;;4.95;3.30;;;7.40;91.90;;;;;;2049843;28;20098;-95
2021/10/25 01:27:04;;;;;;;5.68;3.55;;;7.40;91.90;;;;;;2057851;28;20034;-94
2021/10/25 01:28:05;;;;;;;7.00;3.70;;;7.40;91.90;;;;;;2049969;28;20059;-94
2021/10/25 01:29:06;;;;;;;5.65;3.85;;;7.30;91.80;;;;;;2057010;28;20043;-95
2021/10/25 01:30:07;;;;;;;5.28;3.60;;;7.30;91.80;;;;;;2057734;28;20101;-95
2021/10/25 01:31:08;;;;;;;5.57;3.70;;;7.30;91.80;;;;;;2055898;28;20117;-95
2021/10/25 01:32:09;;;;;;;4.95;3.28;;;7.40;91.90;;;;;;2051736;28;20036;-95
2021/10/25 01:33:15;;;;;;;6.00;3.58;;;7.30;91.90;;;;;;2049729;28;20039;-95
2021/10/25 01:34:16;;;;;;;6.18;3.83;;;7.30;91.90;;;;;;2058628;28;20137;-95
2021/10/25 01:35:18;;;;;;;5.40;3.60;;;7.30;91.90;;;;;;2064588;28;20026;-94
2021/10/25 01:36:19;;;;;;;6.03;3.80;;;7.30;91.90;;;;;;2057259;28;20465;-95
2021/10/25 01:37:20;;;;;;;5.65;3.80;;;7.30;91.90;;;;;;2058591;28;20493;-93
2021/10/25 01:38:21;;;;;;;6.57;3.58;;;7.30;91.90;;;;;;2049756;28;20130;-95
2021/10/25 01:39:22;;;;;;;6.45;4.00;;;7.30;91.90;;;;;;2057246;28;20051;-96
2021/10/25 01:40:23;;;;;;;5.07;3.20;;;7.20;91.90;;;;;;2065132;28;20039;-95
2021/10/25 01:41:24;;;;;;;5.97;3.67;;;7.30;92.00;;;;;;2052263;28;20045;-95
2021/10/25 01:42:25;;;;;;;4.97;3.45;;;7.20;92.00;;;;;;2050471;29;20027;-94
2021/10/25 01:43:26;;;;;;;6.13;3.70;;;7.30;92.00;;;;;;2050699;28;20074;-94
2021/10/25 01:44:27;;;;;;;4.93;3.45;;;7.30;92.00;;;;;;2060801;28;20031;-95
2021/10/25 01:45:28;;;;;;;5.63;3.80;;;7.30;92.00;;;;;;2060203;28;20049;-95
2021/10/25 01:46:29;;;;;;;5.72;4.03;;;7.30;92.00;;;;;;2064092;28;20037;-94
2021/10/25 01:47:29;;;;;;;6.15;3.63;;;7.30;92.00;;;;;;2059292;28;20046;-94
2021/10/25 01:48:30;;;;;;;5.15;3.47;;;7.30;92.00;;;;;;2057786;28;20046;-94
2021/10/25 01:49:31;;;;;;;5.72;3.70;;;7.30;92.00;;;;;;2065018;28;20089;-95
2021/10/25 01:50:32;;;;;;;5.28;3.30;;;7.30;92.00;;;;;;2049014;28;20070;-95
2021/10/25 01:51:33;;;;;;;7.78;4.03;;;7.30;92.00;;;;;;2046324;28;20123;-95
2021/10/25 01:52:34;;;;;;;6.28;3.88;;;7.30;92.00;;;;;;2049813;28;20103;-96
2021/10/25 01:53:37;;;;;;;5.85;3.83;;;7.30;92.00;;;;;;2055653;28;20134;-96
2021/10/25 01:54:37;;;;;;;5.88;3.60;;;7.30;92.00;;;;;;2055324;28;20218;-96
2021/10/25 01:55:38;;;;;;;7.45;3.70;;;7.30;92.00;;;;;;2057817;28;20058;-96
2021/10/25 01:56:39;;;;;;;5.45;3.47;;;7.30;92.00;;;;;;2057274;28;20498;-96
2021/10/25 01:57:40;;;;;;;5.43;3.20;;;7.30;92.00;;;;;;2034108;29;20056;-96
2021/10/25 01:58:41;;;;;;;6.25;3.85;;;7.30;92.00;;;;;;2043071;28;20051;-95
2021/10/25 01:59:41;;;;;;;5.57;3.40;;;7.30;92.00;;;;;;2051159;29;20054;-94
2021/10/25 02:00:43;;;;;;;5.93;3.60;;;7.30;92.00;;;;;;2054570;28;20026;-96
2021/10/25 02:01:44;;;;;;;5.18;3.65;;;7.40;92.00;;;;;;2059246;28;20125;-95
2021/10/25 02:02:45;;;;;;;5.82;3.50;;;7.30;92.00;;;;;;2035865;29;20141;-96
2021/10/25 02:03:46;;;;;;;4.97;3.30;;;7.40;92.00;;;;;;2043187;29;20103;-95
2021/10/25 02:04:46;;;;;;;6.00;3.70;;;7.40;92.00;;;;;;2043192;29;20036;-94
2021/10/25 02:05:47;;;;;;;5.18;3.50;;;7.40;91.90;;;;;;2049639;28;20612;-95
2021/10/25 02:06:48;;;;;;;5.80;3.30;;;7.40;91.90;;;;;;2066209;28;20060;-95
2021/10/25 02:07:48;;;;;;;5.72;3.92;;;7.40;91.90;;;;;;2057827;29;20081;-96
2021/10/25 02:08:49;;;;;;;4.55;3.20;;;7.50;91.90;;;;;;2062361;28;20035;-95
2021/10/25 02:09:50;;;;;;;5.93;3.67;;;7.50;91.90;;;;;;2061586;28;20114;-95
2021/10/25 02:10:51;;;;;;;7.15;4.20;;;7.50;91.90;;;;;;2051521;29;20039;-96
2021/10/25 02:11:51;;;;;;;5.75;3.50;;;7.60;91.90;;;;;;2066824;28;20069;-95
2021/10/25 02:12:53;;;;;;;5.93;3.90;;;7.60;91.90;;;;;;2066719;28;20045;-95
2021/10/25 02:13:53;;;;;;;5.07;3.60;;;7.60;91.80;;;;;;2057481;29;20110;-95
2021/10/25 02:14:54;;;;;;;5.97;3.40;;;7.70;91.80;;;;;;2065014;28;20038;-95
2021/10/25 02:15:55;;;;;;;6.22;3.88;;;7.70;91.80;;;;;;2065281;28;20041;-95
2021/10/25 02:16:56;;;;;;;7.25;4.18;;;7.70;91.80;;;;;;2062871;28;20019;-96
2021/10/25 02:17:57;;;;;;;5.53;3.95;;;7.70;91.80;;;;;;2073270;28;20041;-96
2021/10/25 02:18:58;;;;;;;6.53;4.32;;;7.70;91.80;;;;;;2070072;28;20130;-95
2021/10/25 02:19:59;;;;;;;6.18;4.07;;;7.80;91.80;;;;;;2060005;28;20043;-96
2021/10/25 02:20:59;;;;;;;5.50;4.18;;;7.80;91.80;;;;;;2054142;29;20038;-96
2021/10/25 02:22:00;;;;;;;5.20;3.85;;;7.80;91.80;;;;;;2072389;28;20058;-96
2021/10/25 02:23:01;;;;;;;6.10;4.05;;;7.80;91.70;;;;;;2074046;28;20038;-96
2021/10/25 02:24:03;;;;;;;6.07;4.05;;;7.80;91.70;;;;;;2069512;28;20039;-95
2021/10/25 02:25:04;;;;;;;5.82;3.80;;;7.80;91.70;;;;;;2058969;28;20505;-95
2021/10/25 02:26:05;;;;;;;5.82;3.58;;;7.90;91.70;;;;;;2059340;28;20469;-96
2021/10/25 02:27:06;;;;;;;6.10;4.10;;;7.90;91.70;;;;;;2059132;28;20509;-96
2021/10/25 02:28:06;;;;;;;6.10;3.78;;;7.90;91.70;;;;;;2067023;28;20035;-96
2021/10/25 02:29:09;;;;;;;5.15;3.40;;;8.00;91.70;;;;;;2059195;28;20050;-96
2021/10/25 02:30:10;;;;;;;5.90;3.92;;;8.00;91.70;;;;;;2066513;28;20104;-95
2021/10/25 02:31:11;;;;;;;6.00;3.80;;;8.00;91.70;;;;;;2066714;28;20030;-95
2021/10/25 02:32:15;;;;;;;5.85;3.90;;;8.00;91.70;;;;;;2049082;28;20098;-95
2021/10/25 02:33:18;;;;;;;5.95;3.72;;;8.00;91.60;;;;;;2059795;28;20035;-95
2021/10/25 02:34:18;;;;;;;5.72;3.53;;;8.00;91.60;;;;;;2058675;28;20043;-95
2021/10/25 02:35:19;;;;;;;5.55;3.58;;;8.00;91.60;;;;;;2046377;28;20375;-95
2021/10/25 02:36:20;;;;;;;5.47;3.60;;;8.10;91.60;;;;;;2054198;28;20485;-96
2021/10/25 02:37:20;;;;;;;5.50;3.58;;;8.10;91.60;;;;;;2059340;28;20035;-96
2021/10/25 02:38:21;;;;;;;5.15;3.30;;;8.10;91.60;;;;;;2049979;29;20040;-96
2021/10/25 02:39:22;;;;;;;5.35;3.40;;;8.10;91.60;;;;;;2057960;28;20056;-95
2021/10/25 02:40:25;;;;;;;4.90;3.15;;;8.10;91.60;;;;;;2062048;28;20030;-96
2021/10/25 02:41:27;;;;;;;5.43;3.30;;;8.10;91.60;;;;;;2069382;28;20073;-96
2021/10/25 02:42:28;;;;;;;5.70;3.80;;;8.10;91.60;;;;;;2074073;28;20106;-96
2021/10/25 02:43:28;;;;;;;5.20;3.42;;;8.10;91.60;;;;;;2066157;28;20038;-95
2021/10/25 02:44:29;;;;;;;5.38;3.67;;;8.10;91.60;;;;;;2070590;28;20034;-96
2021/10/25 02:45:30;;;;;;;5.65;3.42;;;8.20;91.60;;;;;;2066179;28;20038;-96
2021/10/25 02:46:31;;;;;;;5.60;3.40;;;8.20;91.60;;;;;;2051049;28;20040;-96
2021/10/25 02:47:32;;;;;;;4.97;3.38;;;8.20;91.60;;;;;;2053864;28;20137;-95
2021/10/25 02:48:33;;;;;;;6.43;3.72;;;8.20;91.60;;;;;;2058922;28;20396;-96
2021/10/25 02:49:34;;;;;;;5.68;3.58;;;8.30;91.60;;;;;;2067092;28;20031;-95
2021/10/25 02:50:34;;;;;;;5.75;3.45;;;8.20;91.60;;;;;;2058927;28;20666;-96
2021/10/25 02:51:35;;;;;;;6.10;3.60;;;8.30;91.60;;;;;;2070039;28;20538;-96
2021/10/25 02:52:36;;;;;;;6.93;3.53;;;8.30;91.60;;;;;;2058318;28;20071;-95
2021/10/25 02:53:37;;;;;;;5.85;3.38;;;8.30;91.60;;;;;;2058729;28;20035;-95
2021/10/25 02:54:37;;;;;;;6.43;3.10;;;8.30;91.60;;;;;;2066489;28;20078;-95
2021/10/25 02:55:38;;;;;;;7.35;3.33;;;8.30;91.60;;;;;;2050706;28;20573;-96
2021/10/25 02:56:39;;;;;;;4.93;3.45;;;8.30;91.60;;;;;;2054034;28;20039;-95
2021/10/25 02:57:42;;;;;;;5.53;3.58;;;8.30;91.60;;;;;;2066932;28;20042;-96
2021/10/25 02:58:42;;;;;;;6.82;3.40;;;8.30;91.60;;;;;;2074939;28;20064;-96
2021/10/25 02:59:43;;;;;;;4.43;2.90;;;8.30;91.60;;;;;;2074516;28;20046;-96
2021/10/25 03:00:44;;;;;;;6.15;3.65;;;8.30;91.60;;;;;;2066945;28;20520;-96
2021/10/25 03:01:45;;;;;;;5.10;3.40;;;8.30;91.60;;;;;;2065676;28;20137;-96
2021/10/25 03:02:46;;;;;;;4.60;3.13;;;8.30;91.60;;;;;;2058871;28;20035;-96
2021/10/25 03:03:47;;;;;;;4.88;3.20;;;8.30;91.50;;;;;;2064811;28;20427;-96
2021/10/25 03:04:48;;;;;;;5.13;3.15;;;8.30;91.50;;;;;;2066818;28;20125;-96
2021/10/25 03:05:48;;;;;;;4.82;3.30;;;8.40;91.50;;;;;;2050980;29;20063;-96
2021/10/25 03:06:49;;;;;;;5.55;3.30;;;8.40;91.50;;;;;;2051436;28;20046;-96
2021/10/25 03:07:50;;;;;;;4.82;3.10;;;8.40;91.50;;;;;;2058611;28;20043;-96
2021/10/25 03:08:50;;;;;;;4.22;2.90;;;8.40;91.50;;;;;;2058122;28;20449;-96
2021/10/25 03:09:51;;;;;;;4.47;3.10;;;8.40;91.80;;;;;;2057596;28;20473;-96
2021/10/25 03:10:52;;;;;;;5.40;3.38;;;8.40;91.50;;;;;;2058476;28;20085;-96
2021/10/25 03:11:53;;;;;;;5.05;3.08;;;8.40;91.50;;;;;;2050015;28;20043;-95
2021/10/25 03:12:54;;;;;;;5.78;3.30;;;8.40;91.50;;;;;;2050921;28;20417;-95
2021/10/25 03:13:55;;;;;;;4.88;2.90;;;8.40;91.60;;;;;;2058571;28;20035;-94
2021/10/25 03:14:56;;;;;;;5.82;3.17;;;8.50;91.60;;;;;;2059355;28;20031;-95
2021/10/25 03:15:57;;;;;;;5.00;2.90;;;8.40;91.50;;;;;;2062055;28;20457;-95
2021/10/25 03:16:57;;;;;;;6.22;3.30;;;8.50;91.60;;;;;;2050715;29;20045;-94
2021/10/25 03:17:58;;;;;;;4.53;2.78;;;8.50;91.60;;;;;;2045685;29;20395;-95
2021/10/25 03:18:59;;;;;;;5.28;3.30;;;8.50;91.60;;;;;;2058307;28;20043;-94
2021/10/25 03:20:02;;;;;;;5.28;3.22;;;8.50;91.60;;;;;;2054409;28;20058;-95
2021/10/25 03:21:03;;;;;;;5.05;3.10;;;8.50;91.60;;;;;;2058835;28;20027;-95
2021/10/25 03:22:07;;;;;;;5.97;3.40;;;8.50;91.50;;;;;;2055327;28;20082;-96
2021/10/25 03:23:08;;;;;;;6.55;3.83;;;8.50;91.50;;;;;;2060003;28;20126;-96
2021/10/25 03:24:09;;;;;;;4.88;2.80;;;8.50;91.50;;;;;;2066989;28;20579;-96
2021/10/25 03:25:10;;;;;;;4.97;3.28;;;8.50;91.50;;;;;;2058833;28;20035;-96
2021/10/25 03:26:11;;;;;;;4.28;2.83;;;8.50;91.50;;;;;;2042741;28;20039;-96
2021/10/25 03:27:12;;;;;;;5.07;3.40;;;8.50;91.50;;;;;;2059375;28;20544;-96
2021/10/25 03:28:13;;;;;;;5.50;3.30;;;8.50;91.50;;;;;;2051299;28;20543;-96
2021/10/25 03:29:14;;;;;;;5.72;3.40;;;8.50;91.50;;;;;;2051553;28;20414;-96
2021/10/25 03:30:15;;;;;;;6.13;3.42;;;8.50;91.50;;;;;;2051297;28;20049;-96
2021/10/25 03:31:19;;;;;;;4.47;3.03;;;8.50;91.50;;;;;;2059684;28;20031;-96
2021/10/25 03:32:20;;;;;;;5.55;3.35;;;8.50;91.50;;;;;;2058980;28;20102;-96
2021/10/25 03:33:21;;;;;;;5.15;3.25;;;8.60;91.60;;;;;;2058808;28;20086;-96
2021/10/25 03:34:22;;;;;;;6.28;3.40;;;8.60;91.60;;;;;;2062595;28;20034;-95
2021/10/25 03:35:23;;;;;;;4.75;3.28;;;8.50;91.50;;;;;;2058648;28;20809;-96
2021/10/25 03:36:27;;;;;;;4.90;3.15;;;8.60;91.50;;;;;;2050889;29;20043;-96
2021/10/25 03:37:28;;;;;;;5.63;2.97;;;8.60;91.50;;;;;;2061131;28;20035;-96
2021/10/25 03:38:30;;;;;;;4.78;2.97;;;8.60;91.50;;;;;;2059649;28;20038;-96
2021/10/25 03:39:35;;;;;;;5.00;3.10;;;8.60;91.50;;;;;;2057552;28;20129;-96
2021/10/25 03:40:37;;;;;;;5.15;3.00;;;8.60;91.50;;;;;;2068268;28;20039;-96
2021/10/25 03:41:42;;;;;;;5.70;3.03;;;8.60;91.50;;;;;;2072666;28;20165;-96
2021/10/25 03:42:46;;;;;;;4.38;2.90;;;8.60;91.50;;;;;;2064500;28;20031;-96
2021/10/25 03:43:56;;;;;;;4.85;3.00;;;8.60;91.50;;;;;;2064238;28;20113;-96
2021/10/25 03:47:28;;;;;;;4.78;2.63;;;8.60;91.50;;;;;;2061629;28;20062;-96
2021/10/25 03:48:35;;;;;;;4.95;2.80;;;8.60;91.50;;;;;;2050531;29;20039;-96
2021/10/25 03:49:46;;;;;;;5.47;2.78;;;8.60;91.50;;;;;;2046390;28;20107;-96
2021/10/25 03:50:50;;;;;;;4.03;2.70;;;8.60;91.50;;;;;;2043975;29;20036;-95
2021/10/25 03:51:51;;;;;;;3.85;2.65;;;8.60;91.50;;;;;;2044104;28;20064;-96
2021/10/25 03:54:00;;;;;;;6.10;3.20;;;8.60;91.50;;;;;;2059146;28;20043;-95
2021/10/25 03:56:18;;;;;;;4.78;2.78;;;8.60;91.50;;;;;;2052394;28;20548;-95
2021/10/25 04:26:58;;;;;;;5.45;2.70;;;8.70;91.40;;;;;;2078970;28;20045;-93
2021/10/25 04:28:09;;;;;;;4.30;2.70;;;8.70;91.40;;;;;;2062810;28;20107;-95
2021/10/25 04:29:13;;;;;;;4.43;2.47;;;8.70;91.40;;;;;;2073290;28;20011;-93
2021/10/25 04:30:15;;;;;;;4.45;2.60;;;8.70;91.40;;;;;;2066770;28;20030;-94
2021/10/25 04:31:17;;;;;;;4.80;2.38;;;8.70;91.40;;;;;;2067198;28;20049;-94
2021/10/25 04:32:17;;;;;;;4.05;2.70;;;8.70;91.40;;;;;;2067913;28;20023;-95
2021/10/25 04:33:18;;;;;;;5.22;2.95;;;8.80;91.40;;;;;;2065865;28;20091;-93
2021/10/25 04:34:19;;;;;;;4.40;2.60;;;8.80;91.40;;;;;;2050695;28;20027;-94
2021/10/25 04:35:20;;;;;;;5.25;2.90;;;8.70;91.40;;;;;;2059832;28;20026;-96
2021/10/25 04:36:20;;;;;;;4.43;2.72;;;8.80;91.50;;;;;;2066713;28;20062;-95
2021/10/25 04:37:21;;;;;;;4.40;2.65;;;8.80;91.50;;;;;;2058954;28;20019;-93
2021/10/25 04:38:22;;;;;;;4.75;2.90;;;8.80;91.50;;;;;;2059470;28;20030;-94
2021/10/25 04:39:22;;;;;;;5.72;3.20;;;8.80;91.50;;;;;;2059327;28;20019;-92
2021/10/25 04:40:25;;;;;;;5.13;2.97;;;8.80;91.50;;;;;;2059007;28;20023;-94
2021/10/25 04:41:26;;;;;;;4.70;2.90;;;8.80;91.50;;;;;;2060155;28;20107;-92
2021/10/25 04:42:27;;;;;;;5.07;2.80;;;8.80;91.50;;;;;;2051816;28;20024;-94
2021/10/25 04:43:28;;;;;;;3.83;2.80;;;8.80;91.50;;;;;;2038350;29;20109;-93
2021/10/25 04:44:30;;;;;;;4.68;2.90;;;8.80;91.50;;;;;;2040344;28;20096;-91
2021/10/25 04:45:31;;;;;;;4.50;2.88;;;8.80;91.50;;;;;;2059400;28;20119;-94
2021/10/25 04:46:32;;;;;;;5.10;2.85;;;8.80;91.50;;;;;;2060041;28;20020;-95
2021/10/25 04:47:32;;;;;;;4.93;2.80;;;8.80;91.50;;;;;;2058388;28;20019;-94
2021/10/25 04:48:33;;;;;;;5.70;2.95;;;8.80;91.50;;;;;;2059272;28;20040;-95
2021/10/25 04:49:34;;;;;;;5.57;3.00;;;8.80;91.50;;;;;;2051797;28;20019;-96
2021/10/25 04:50:34;;;;;;;4.93;2.65;;;8.90;91.60;;;;;;2059687;28;20039;-92
2021/10/25 04:51:35;;;;;;;4.82;2.78;;;8.90;91.60;;;;;;2063142;28;20027;-94
2021/10/25 04:52:36;;;;;;;5.60;2.80;;;8.90;91.60;;;;;;2055148;28;20020;-92
2021/10/25 04:53:37;;;;;;;4.45;2.65;;;8.80;91.50;;;;;;2067465;28;20023;-94
2021/10/25 04:54:38;;;;;;;6.32;3.00;;;8.90;91.60;;;;;;2051425;28;20028;-96
2021/10/25 04:55:40;;;;;;;4.53;2.55;;;8.90;91.60;;;;;;2040497;28;20050;-95
2021/10/25 04:56:41;;;;;;;4.65;2.80;;;8.90;91.60;;;;;;2059815;28;20031;-94
2021/10/25 04:57:42;;;;;;;4.50;2.90;;;8.90;91.60;;;;;;2066390;28;20062;-91
2021/10/25 04:58:42;;;;;;;3.88;2.35;;;8.90;91.60;;;;;;2049854;28;20031;-96
2021/10/25 04:59:43;;;;;;;5.25;2.80;;;8.90;91.60;;;;;;2049467;28;20038;-95
2021/10/25 05:00:44;;;;;;;4.35;2.72;;;8.90;91.60;;;;;;2059572;28;20058;-94
2021/10/25 05:01:45;;;;;;;5.43;2.78;;;8.90;91.60;;;;;;2065697;28;20062;-93
2021/10/25 05:02:47;;;;;;;4.47;2.85;;;8.90;91.60;;;;;;2068622;28;20018;-95
2021/10/25 05:03:48;;;;;;;4.82;2.83;;;8.90;91.60;;;;;;2074993;28;20023;-95
2021/10/25 05:04:48;;;;;;;4.38;2.65;;;9.00;91.60;;;;;;2067301;28;20007;-90
2021/10/25 05:05:49;;;;;;;4.68;2.80;;;8.90;91.60;;;;;;2058600;29;20019;-95
2021/10/25 05:06:50;;;;;;;4.97;2.45;;;9.00;91.60;;;;;;2059791;28;20039;-94
2021/10/25 05:07:51;;;;;;;4.88;2.72;;;9.00;91.60;;;;;;2054879;28;20035;-95
2021/10/25 05:08:51;;;;;;;4.90;2.70;;;9.00;91.60;;;;;;2045870;29;20036;-96
2021/10/25 05:09:52;;;;;;;4.47;2.90;;;8.90;91.60;;;;;;2051596;28;20023;-95
2021/10/25 05:10:53;;;;;;;4.75;3.00;;;9.00;91.60;;;;;;2063634;28;20086;-95
2021/10/25 05:11:53;;;;;;;5.78;2.80;;;9.00;91.60;;;;;;2062067;28;20066;-94
2021/10/25 05:12:54;;;;;;;5.03;2.88;;;9.00;91.60;;;;;;2066487;28;20058;-96
2021/10/25 05:13:54;;;;;;;3.60;2.35;;;9.00;91.60;;;;;;2057578;28;20033;-95
2021/10/25 05:14:55;;;;;;;4.20;2.45;;;9.00;91.60;;;;;;2058065;28;20043;-94
2021/10/25 05:15:56;;;;;;;4.20;2.70;;;9.00;91.60;;;;;;2073382;28;20086;-95
2021/10/25 05:16:57;;;;;;;4.25;2.63;;;9.00;91.60;;;;;;2065093;28;20050;-96
2021/10/25 05:17:57;;;;;;;6.10;2.97;;;9.00;91.60;;;;;;2049333;29;20103;-95
2021/10/25 05:18:58;;;;;;;3.55;2.50;;;9.10;91.60;;;;;;2043200;29;20107;-94
2021/10/25 05:19:59;;;;;;;4.18;2.67;;;9.00;91.60;;;;;;2051609;29;20028;-95
2021/10/25 05:21:00;;;;;;;4.65;2.45;;;9.10;91.60;;;;;;2058556;28;20083;-95
2021/10/25 05:22:00;;;;;;;4.07;2.75;;;9.00;91.60;;;;;;2051151;29;20042;-95
2021/10/25 05:23:01;;;;;;;4.35;2.80;;;9.00;91.60;;;;;;2067160;28;20027;-95
2021/10/25 05:24:03;;;;;;;4.85;3.00;;;9.10;91.70;;;;;;2059132;29;20098;-95
2021/10/25 05:25:05;;;;;;;4.90;2.95;;;9.10;91.70;;;;;;2058472;29;20036;-94
2021/10/25 05:26:06;;;;;;;5.05;3.08;;;9.10;91.60;;;;;;2050661;29;20046;-96
2021/10/25 05:27:07;;;;;;;4.47;2.92;;;9.10;91.70;;;;;;2057105;28;20055;-95
2021/10/25 05:28:08;;;;;;;6.25;3.33;;;9.00;91.60;;;;;;2058788;28;20023;-95
2021/10/25 05:29:09;;;;;;;4.70;3.10;;;9.10;91.70;;;;;;2053211;28;20035;-95
2021/10/25 05:30:10;;;;;;;4.78;3.17;;;9.10;91.70;;;;;;2059254;28;20027;-96
2021/10/25 05:31:11;;;;;;;4.88;2.97;;;9.10;91.70;;;;;;2059032;28;20033;-95
2021/10/25 05:32:13;;;;;;;4.13;2.83;;;9.10;91.70;;;;;;2059532;28;20035;-95
2021/10/25 05:33:14;;;;;;;6.15;3.25;;;9.10;91.70;;;;;;2067159;28;20034;-93
2021/10/25 05:34:14;;;;;;;5.55;2.95;;;9.10;91.70;;;;;;2060138;28;20043;-94
2021/10/25 05:35:15;;;;;;;4.55;2.75;;;9.10;91.70;;;;;;2062854;28;20056;-94
2021/10/25 05:36:16;;;;;;;5.30;2.90;;;9.10;91.70;;;;;;2068158;28;20073;-93
2021/10/25 05:37:17;;;;;;;4.55;2.80;;;9.10;91.70;;;;;;2065724;28;20051;-94
2021/10/25 05:38:17;;;;;;;4.65;2.85;;;9.10;91.70;;;;;;2060718;28;20024;-94
2021/10/25 05:39:18;;;;;;;4.75;2.65;;;9.10;91.70;;;;;;2059713;28;20031;-94
2021/10/25 05:40:19;;;;;;;4.63;2.60;;;9.10;91.70;;;;;;2053458;28;20050;-94
2021/10/25 05:41:20;;;;;;;5.30;3.13;;;9.10;91.70;;;;;;2052262;29;20032;-93
2021/10/25 05:42:21;;;;;;;5.30;2.90;;;9.10;91.70;;;;;;2061523;28;20027;-93
2021/10/25 05:43:22;;;;;;;4.93;3.05;;;9.10;91.70;;;;;;2057618;28;20111;-94
2021/10/25 05:44:23;;;;;;;4.20;2.72;;;9.10;91.70;;;;;;2051567;29;20034;-94
2021/10/25 05:45:24;;;;;;;4.50;2.90;;;9.20;92.00;;;;;;2051037;28;20036;-93
2021/10/25 05:46:25;;;;;;;4.00;2.53;;;9.10;91.70;;;;;;2073945;28;20105;-90
2021/10/25 05:47:25;;;;;;;5.28;3.10;;;9.10;91.70;;;;;;2069104;28;20035;-92
2021/10/25 05:48:27;;;;;;;5.15;2.70;;;9.10;91.70;;;;;;2059535;28;20019;-94
2021/10/25 05:49:27;;;;;;;5.35;2.92;;;9.20;91.70;;;;;;2058297;28;20055;-92
2021/10/25 05:50:29;;;;;;;5.05;2.80;;;9.20;91.70;;;;;;2049549;29;20058;-93
2021/10/25 05:51:30;;;;;;;4.95;2.75;;;9.20;91.70;;;;;;2051479;28;20134;-91
2021/10/25 05:52:30;;;;;;;4.88;2.83;;;9.10;91.70;;;;;;2060112;28;20050;-91
2021/10/25 05:53:31;;;;;;;4.03;2.70;;;9.20;91.70;;;;;;2054887;28;20035;-91
2021/10/25 05:54:32;;;;;;;3.95;2.80;;;9.20;91.70;;;;;;2032341;29;20040;-91
2021/10/25 05:55:33;;;;;;;4.82;2.60;;;9.20;91.70;;;;;;2037777;28;20075;-91
2021/10/25 05:56:33;;;;;;;5.25;2.85;;;9.20;91.70;;;;;;2049778;29;20087;-91
2021/10/25 05:57:34;;;;;;;4.90;2.97;;;9.20;91.70;;;;;;2053098;28;20070;-91